sensor_id;sensor_type;location;lat;lon;timestamp;pressure;altitude;pressure_sealevel;temperature;humidity
77288;BME280;66345;42.694;23.346;2024-01-15T00:00:45;95020.81;;;-3.19;74.92
77288;BME280;66345;42.694;23.346;2024-01-15T00:03:11;95026.63;;;-3.16;74.55
77288;BME280;66345;42.694;23.346;2024-01-15T00:05:36;95039.72;;;-3.06;75.36
77288;BME280;66345;42.694;23.346;2024-01-15T00:08:02;95049.72;;;-3.24;76.12
77288;BME280;66345;42.694;23.346;2024-01-15T00:10:28;95024.38;;;-3.31;76.54
77288;BME280;66345;42.694;23.346;2024-01-15T00:12:53;95035.81;;;-3.23;76.42
77288;BME280;66345;42.694;23.346;2024-01-15T00:15:19;95023.50;;;-3.54;77.47
77288;BME280;66345;42.694;23.346;2024-01-15T00:17:45;95042.75;;;-3.35;77.09
77288;BME280;66345;42.694;23.346;2024-01-15T00:20:11;95016.44;;;-3.52;77.71
77288;BME280;66345;42.694;23.346;2024-01-15T00:22:36;95024.41;;;-3.78;77.94
77288;BME280;66345;42.694;23.346;2024-01-15T00:25:03;95023.47;;;-3.66;78.51
77288;BME280;66345;42.694;23.346;2024-01-15T00:27:28;95034.09;;;-3.69;77.87
77288;BME280;66345;42.694;23.346;2024-01-15T00:29:54;95048.13;;;-3.49;78.07
77288;BME280;66345;42.694;23.346;2024-01-15T00:32:20;95042.84;;;-3.47;77.26
77288;BME280;66345;42.694;23.346;2024-01-15T00:34:45;95031.06;;;-3.51;77.39
77288;BME280;66345;42.694;23.346;2024-01-15T00:37:11;95044.00;;;-3.63;78.47
77288;BME280;66345;42.694;23.346;2024-01-15T00:39:36;95036.00;;;-3.48;77.64
77288;BME280;66345;42.694;23.346;2024-01-15T00:42:02;95028.91;;;-3.57;78.08
77288;BME280;66345;42.694;23.346;2024-01-15T00:44:28;95041.38;;;-3.74;77.76
77288;BME280;66345;42.694;23.346;2024-01-15T00:46:53;95031.25;;;-4.01;79.16
77288;BME280;66345;42.694;23.346;2024-01-15T00:49:19;95036.81;;;-3.94;80.28
77288;BME280;66345;42.694;23.346;2024-01-15T00:51:44;95032.38;;;-3.81;79.86
77288;BME280;66345;42.694;23.346;2024-01-15T00:54:10;95043.63;;;-3.93;79.25
77288;BME280;66345;42.694;23.346;2024-01-15T00:56:36;95046.69;;;-3.99;79.87
77288;BME280;66345;42.694;23.346;2024-01-15T00:59:02;95036.47;;;-3.89;79.45
77288;BME280;66345;42.694;23.346;2024-01-15T01:01:28;95038.06;;;-3.76;79.60
77288;BME280;66345;42.694;23.346;2024-01-15T01:03:53;95020.13;;;-3.79;79.00
77288;BME280;66345;42.694;23.346;2024-01-15T01:06:19;95039.09;;;-4.13;79.57
77288;BME280;66345;42.694;23.346;2024-01-15T01:08:44;95027.84;;;-4.25;80.53
77288;BME280;66345;42.694;23.346;2024-01-15T01:11:14;95047.34;;;-4.08;81.59
77288;BME280;66345;42.694;23.346;2024-01-15T01:13:39;95045.97;;;-4.01;80.55
77288;BME280;66345;42.694;23.346;2024-01-15T01:16:05;95018.66;;;-3.94;81.11
77288;BME280;66345;42.694;23.346;2024-01-15T01:18:30;95028.13;;;-3.82;81.01
77288;BME280;66345;42.694;23.346;2024-01-15T01:20:56;95021.13;;;-3.69;79.73
77288;BME280;66345;42.694;23.346;2024-01-15T01:23:21;95023.41;;;-3.53;78.25
77288;BME280;66345;42.694;23.346;2024-01-15T01:25:47;95014.06;;;-3.55;78.79
77288;BME280;66345;42.694;23.346;2024-01-15T01:28:12;95009.34;;;-3.61;78.82
77288;BME280;66345;42.694;23.346;2024-01-15T01:30:38;95012.56;;;-3.47;78.01
77288;BME280;66345;42.694;23.346;2024-01-15T01:33:03;95021.16;;;-3.35;78.04
77288;BME280;66345;42.694;23.346;2024-01-15T01:35:29;95007.97;;;-3.43;77.47
77288;BME280;66345;42.694;23.346;2024-01-15T01:37:54;95020.34;;;-3.36;77.42
77288;BME280;66345;42.694;23.346;2024-01-15T01:40:20;95003.84;;;-3.46;76.84
77288;BME280;66345;42.694;23.346;2024-01-15T01:42:45;95007.00;;;-3.42;77.07
77288;BME280;66345;42.694;23.346;2024-01-15T01:45:11;94999.69;;;-3.48;77.32
77288;BME280;66345;42.694;23.346;2024-01-15T01:47:37;94995.94;;;-3.44;77.66
77288;BME280;66345;42.694;23.346;2024-01-15T01:50:03;94999.81;;;-3.50;76.93
77288;BME280;66345;42.694;23.346;2024-01-15T01:52:30;95009.84;;;-3.45;76.72
77288;BME280;66345;42.694;23.346;2024-01-15T01:54:56;94991.78;;;-3.69;77.56
77288;BME280;66345;42.694;23.346;2024-01-15T01:57:22;95008.16;;;-3.69;78.07
77288;BME280;66345;42.694;23.346;2024-01-15T01:59:48;94997.75;;;-3.80;78.68
77288;BME280;66345;42.694;23.346;2024-01-15T02:02:14;94982.06;;;-3.89;78.57
77288;BME280;66345;42.694;23.346;2024-01-15T02:04:40;94998.97;;;-3.61;78.07
77288;BME280;66345;42.694;23.346;2024-01-15T02:07:06;94996.97;;;-3.69;78.49
77288;BME280;66345;42.694;23.346;2024-01-15T02:09:31;94990.22;;;-3.72;77.60
77288;BME280;66345;42.694;23.346;2024-01-15T02:11:57;94990.84;;;-3.68;77.93
77288;BME280;66345;42.694;23.346;2024-01-15T02:14:23;94988.56;;;-3.73;78.34
77288;BME280;66345;42.694;23.346;2024-01-15T02:16:49;94981.28;;;-3.56;78.31
77288;BME280;66345;42.694;23.346;2024-01-15T02:19:15;94981.66;;;-3.61;77.48
77288;BME280;66345;42.694;23.346;2024-01-15T02:21:42;94958.47;;;-3.98;78.53
77288;BME280;66345;42.694;23.346;2024-01-15T02:24:07;94963.69;;;-3.86;79.24
77288;BME280;66345;42.694;23.346;2024-01-15T02:26:33;94946.41;;;-3.75;78.22
77288;BME280;66345;42.694;23.346;2024-01-15T02:29:01;94934.75;;;-3.58;77.43
77288;BME280;66345;42.694;23.346;2024-01-15T02:31:27;94934.88;;;-3.59;77.81
77288;BME280;66345;42.694;23.346;2024-01-15T02:33:53;94908.22;;;-3.73;77.54
77288;BME280;66345;42.694;23.346;2024-01-15T02:36:18;94927.44;;;-3.75;77.18
77288;BME280;66345;42.694;23.346;2024-01-15T02:38:43;94923.06;;;-3.64;77.46
77288;BME280;66345;42.694;23.346;2024-01-15T02:41:09;94929.94;;;-3.63;76.44
77288;BME280;66345;42.694;23.346;2024-01-15T02:43:34;94928.03;;;-3.60;75.98
77288;BME280;66345;42.694;23.346;2024-01-15T02:46:00;94923.69;;;-3.60;76.19
77288;BME280;66345;42.694;23.346;2024-01-15T02:48:25;94918.94;;;-3.66;76.01
77288;BME280;66345;42.694;23.346;2024-01-15T02:50:51;94926.50;;;-3.74;76.34
77288;BME280;66345;42.694;23.346;2024-01-15T02:53:16;94930.03;;;-3.75;75.94
77288;BME280;66345;42.694;23.346;2024-01-15T02:55:42;94934.16;;;-3.73;75.69
77288;BME280;66345;42.694;23.346;2024-01-15T02:58:07;94929.19;;;-3.76;76.18
77288;BME280;66345;42.694;23.346;2024-01-15T03:00:33;94931.63;;;-3.85;76.07
77288;BME280;66345;42.694;23.346;2024-01-15T03:02:58;94929.66;;;-3.82;75.50
77288;BME280;66345;42.694;23.346;2024-01-15T03:05:24;94937.22;;;-3.68;75.35
77288;BME280;66345;42.694;23.346;2024-01-15T03:07:49;94919.78;;;-3.66;74.68
77288;BME280;66345;42.694;23.346;2024-01-15T03:10:15;94929.69;;;-3.59;74.65
77288;BME280;66345;42.694;23.346;2024-01-15T03:12:40;94938.28;;;-3.59;73.97
77288;BME280;66345;42.694;23.346;2024-01-15T03:15:06;94933.44;;;-3.64;74.74
77288;BME280;66345;42.694;23.346;2024-01-15T03:17:32;94906.47;;;-3.61;74.45
77288;BME280;66345;42.694;23.346;2024-01-15T03:19:57;94916.72;;;-3.59;73.65
77288;BME280;66345;42.694;23.346;2024-01-15T03:22:23;94918.13;;;-3.67;73.72
77288;BME280;66345;42.694;23.346;2024-01-15T03:24:48;94922.59;;;-3.80;74.08
77288;BME280;66345;42.694;23.346;2024-01-15T03:27:14;94895.72;;;-3.79;73.61
77288;BME280;66345;42.694;23.346;2024-01-15T03:29:41;94903.28;;;-3.76;73.53
77288;BME280;66345;42.694;23.346;2024-01-15T03:32:06;94904.69;;;-3.72;73.02
77288;BME280;66345;42.694;23.346;2024-01-15T03:34:32;94899.16;;;-3.56;73.06
77288;BME280;66345;42.694;23.346;2024-01-15T03:36:57;94902.94;;;-3.60;73.62
77288;BME280;66345;42.694;23.346;2024-01-15T03:39:24;94907.75;;;-3.44;73.07
77288;BME280;66345;42.694;23.346;2024-01-15T03:41:50;94895.97;;;-3.59;73.08
77288;BME280;66345;42.694;23.346;2024-01-15T03:44:15;94891.16;;;-3.53;74.21
77288;BME280;66345;42.694;23.346;2024-01-15T03:46:41;94898.31;;;-3.56;74.68
77288;BME280;66345;42.694;23.346;2024-01-15T03:49:06;94893.38;;;-3.48;73.99
77288;BME280;66345;42.694;23.346;2024-01-15T03:51:32;94898.78;;;-3.40;75.07
77288;BME280;66345;42.694;23.346;2024-01-15T03:53:57;94877.81;;;-3.37;73.64
77288;BME280;66345;42.694;23.346;2024-01-15T03:56:23;94895.25;;;-3.28;73.39
77288;BME280;66345;42.694;23.346;2024-01-15T03:58:48;94892.41;;;-3.14;72.90
77288;BME280;66345;42.694;23.346;2024-01-15T04:01:14;94893.47;;;-3.27;72.71
77288;BME280;66345;42.694;23.346;2024-01-15T04:03:39;94897.16;;;-3.41;73.58
77288;BME280;66345;42.694;23.346;2024-01-15T04:06:05;94890.88;;;-3.27;72.96
77288;BME280;66345;42.694;23.346;2024-01-15T04:08:30;94884.75;;;-3.26;73.02
77288;BME280;66345;42.694;23.346;2024-01-15T04:10:56;94869.53;;;-3.20;72.22
77288;BME280;66345;42.694;23.346;2024-01-15T04:13:22;94878.88;;;-3.28;72.59
77288;BME280;66345;42.694;23.346;2024-01-15T04:15:47;94884.91;;;-3.39;73.26
77288;BME280;66345;42.694;23.346;2024-01-15T04:18:13;94864.28;;;-3.52;73.46
77288;BME280;66345;42.694;23.346;2024-01-15T04:20:39;94881.34;;;-3.49;73.85
77288;BME280;66345;42.694;23.346;2024-01-15T04:23:04;94881.22;;;-3.48;73.59
77288;BME280;66345;42.694;23.346;2024-01-15T04:25:30;94877.72;;;-3.58;74.41
77288;BME280;66345;42.694;23.346;2024-01-15T04:27:56;94886.19;;;-3.78;74.92
77288;BME280;66345;42.694;23.346;2024-01-15T04:30:21;94881.84;;;-3.78;75.41
77288;BME280;66345;42.694;23.346;2024-01-15T04:32:47;94881.13;;;-3.80;74.95
77288;BME280;66345;42.694;23.346;2024-01-15T04:35:12;94887.97;;;-3.68;74.26
77288;BME280;66345;42.694;23.346;2024-01-15T04:37:39;94879.59;;;-3.60;74.30
77288;BME280;66345;42.694;23.346;2024-01-15T04:40:06;94871.34;;;-3.54;73.98
77288;BME280;66345;42.694;23.346;2024-01-15T04:42:31;94867.72;;;-3.63;74.41
77288;BME280;66345;42.694;23.346;2024-01-15T04:44:57;94867.47;;;-3.59;74.06
77288;BME280;66345;42.694;23.346;2024-01-15T04:47:22;94864.63;;;-3.68;74.87
77288;BME280;66345;42.694;23.346;2024-01-15T04:49:48;94870.03;;;-3.71;74.62
77288;BME280;66345;42.694;23.346;2024-01-15T04:52:14;94867.81;;;-3.75;75.16
77288;BME280;66345;42.694;23.346;2024-01-15T04:54:40;94872.78;;;-3.61;75.01
77288;BME280;66345;42.694;23.346;2024-01-15T04:57:05;94874.91;;;-3.55;74.16
77288;BME280;66345;42.694;23.346;2024-01-15T04:59:31;94859.91;;;-3.51;74.63
77288;BME280;66345;42.694;23.346;2024-01-15T05:01:56;94842.00;;;-3.66;74.76
77288;BME280;66345;42.694;23.346;2024-01-15T05:04:22;94859.34;;;-3.55;74.55
77288;BME280;66345;42.694;23.346;2024-01-15T05:06:49;94855.56;;;-3.73;75.44
77288;BME280;66345;42.694;23.346;2024-01-15T05:09:15;94861.34;;;-3.58;75.32
77288;BME280;66345;42.694;23.346;2024-01-15T05:11:40;94855.44;;;-3.60;74.46
77288;BME280;66345;42.694;23.346;2024-01-15T05:14:06;94854.72;;;-3.51;74.75
77288;BME280;66345;42.694;23.346;2024-01-15T05:16:31;94839.75;;;-3.48;74.05
77288;BME280;66345;42.694;23.346;2024-01-15T05:18:57;94834.34;;;-3.45;74.46
77288;BME280;66345;42.694;23.346;2024-01-15T05:21:22;94827.25;;;-3.43;74.04
77288;BME280;66345;42.694;23.346;2024-01-15T05:23:48;94821.16;;;-3.53;74.18
77288;BME280;66345;42.694;23.346;2024-01-15T05:26:13;94842.72;;;-3.52;74.33
77288;BME280;66345;42.694;23.346;2024-01-15T05:28:41;94862.47;;;-3.40;74.00
77288;BME280;66345;42.694;23.346;2024-01-15T05:31:08;94850.00;;;-3.57;74.40
77288;BME280;66345;42.694;23.346;2024-01-15T05:33:34;94862.16;;;-3.69;74.60
77288;BME280;66345;42.694;23.346;2024-01-15T05:35:59;94850.63;;;-3.76;75.25
77288;BME280;66345;42.694;23.346;2024-01-15T05:38:25;94820.09;;;-3.73;74.90
77288;BME280;66345;42.694;23.346;2024-01-15T05:40:50;94840.81;;;-3.73;75.27
77288;BME280;66345;42.694;23.346;2024-01-15T05:43:16;94836.13;;;-3.79;74.99
77288;BME280;66345;42.694;23.346;2024-01-15T05:45:43;94845.19;;;-3.62;75.32
77288;BME280;66345;42.694;23.346;2024-01-15T05:48:10;94832.00;;;-3.70;75.60
77288;BME280;66345;42.694;23.346;2024-01-15T05:50:35;94829.06;;;-3.77;75.17
77288;BME280;66345;42.694;23.346;2024-01-15T05:53:00;94819.63;;;-3.67;74.85
77288;BME280;66345;42.694;23.346;2024-01-15T05:55:28;94812.06;;;-3.58;75.25
77288;BME280;66345;42.694;23.346;2024-01-15T05:57:53;94817.97;;;-3.68;74.86
77288;BME280;66345;42.694;23.346;2024-01-15T06:00:19;94809.81;;;-3.63;75.06
77288;BME280;66345;42.694;23.346;2024-01-15T06:02:44;94823.38;;;-3.93;75.96
77288;BME280;66345;42.694;23.346;2024-01-15T06:05:10;94839.19;;;-3.96;77.29
77288;BME280;66345;42.694;23.346;2024-01-15T06:07:35;94832.47;;;-3.99;77.10
77288;BME280;66345;42.694;23.346;2024-01-15T06:10:02;94849.56;;;-3.85;76.27
77288;BME280;66345;42.694;23.346;2024-01-15T06:12:28;94817.75;;;-3.98;77.00
77288;BME280;66345;42.694;23.346;2024-01-15T06:14:53;94829.41;;;-3.93;77.13
77288;BME280;66345;42.694;23.346;2024-01-15T06:17:19;94830.00;;;-3.67;76.85
77288;BME280;66345;42.694;23.346;2024-01-15T06:19:44;94819.00;;;-3.48;76.07
77288;BME280;66345;42.694;23.346;2024-01-15T06:22:10;94829.13;;;-3.33;76.09
77288;BME280;66345;42.694;23.346;2024-01-15T06:24:35;94818.81;;;-3.13;74.90
77288;BME280;66345;42.694;23.346;2024-01-15T06:27:01;94805.06;;;-3.24;74.95
77288;BME280;66345;42.694;23.346;2024-01-15T06:29:26;94797.03;;;-3.21;74.41
77288;BME280;66345;42.694;23.346;2024-01-15T06:31:53;94794.56;;;-3.34;75.02
77288;BME280;66345;42.694;23.346;2024-01-15T06:34:18;94807.53;;;-3.23;74.72
77288;BME280;66345;42.694;23.346;2024-01-15T06:36:44;94794.50;;;-3.12;74.73
77288;BME280;66345;42.694;23.346;2024-01-15T06:39:10;94823.09;;;-2.80;74.42
77288;BME280;66345;42.694;23.346;2024-01-15T06:41:36;94820.34;;;-2.78;74.79
77288;BME280;66345;42.694;23.346;2024-01-15T06:44:10;94813.34;;;-2.45;73.23
77288;BME280;66345;42.694;23.346;2024-01-15T06:46:36;94820.50;;;-2.38;73.03
77288;BME280;66345;42.694;23.346;2024-01-15T06:49:02;94807.19;;;-2.65;73.71
77288;BME280;66345;42.694;23.346;2024-01-15T06:51:29;94819.88;;;-2.51;73.66
77288;BME280;66345;42.694;23.346;2024-01-15T06:53:54;94817.00;;;-2.27;72.82
77288;BME280;66345;42.694;23.346;2024-01-15T06:56:20;94817.81;;;-1.75;71.19
77288;BME280;66345;42.694;23.346;2024-01-15T06:58:47;94803.66;;;-1.52;69.73
77288;BME280;66345;42.694;23.346;2024-01-15T07:01:13;94805.53;;;-1.73;70.84
77288;BME280;66345;42.694;23.346;2024-01-15T07:03:38;94807.75;;;-1.59;69.79
77288;BME280;66345;42.694;23.346;2024-01-15T07:06:04;94831.16;;;-1.28;69.08
77288;BME280;66345;42.694;23.346;2024-01-15T07:08:30;94834.06;;;-1.12;68.38
77288;BME280;66345;42.694;23.346;2024-01-15T07:10:55;94812.41;;;-1.62;69.58
77288;BME280;66345;42.694;23.346;2024-01-15T07:13:21;94824.84;;;-1.35;69.30
77288;BME280;66345;42.694;23.346;2024-01-15T07:15:46;94831.00;;;-1.67;70.47
77288;BME280;66345;42.694;23.346;2024-01-15T07:18:12;94826.84;;;-1.49;70.75
77288;BME280;66345;42.694;23.346;2024-01-15T07:20:37;94839.09;;;-1.60;70.72
77288;BME280;66345;42.694;23.346;2024-01-15T07:23:03;94830.69;;;-1.43;71.59
77288;BME280;66345;42.694;23.346;2024-01-15T07:25:29;94805.34;;;-1.51;71.20
77288;BME280;66345;42.694;23.346;2024-01-15T07:27:55;94819.28;;;-1.52;70.86
77288;BME280;66345;42.694;23.346;2024-01-15T07:30:55;94830.34;;;-1.19;69.81
77288;BME280;66345;42.694;23.346;2024-01-15T07:33:42;94776.38;;;-1.17;69.36
77288;BME280;66345;42.694;23.346;2024-01-15T07:36:21;94758.56;;;-1.22;69.25
77288;BME280;66345;42.694;23.346;2024-01-15T07:38:58;94811.41;;;-1.21;70.16
77288;BME280;66345;42.694;23.346;2024-01-15T07:41:30;94791.19;;;-0.98;69.29
77288;BME280;66345;42.694;23.346;2024-01-15T07:44:01;94811.03;;;-1.26;70.54
77288;BME280;66345;42.694;23.346;2024-01-15T07:46:27;94807.09;;;-0.92;69.62
77288;BME280;66345;42.694;23.346;2024-01-15T07:48:53;94818.69;;;-1.15;69.07
77288;BME280;66345;42.694;23.346;2024-01-15T07:51:22;94795.56;;;-1.08;69.12
77288;BME280;66345;42.694;23.346;2024-01-15T07:53:47;94796.81;;;-0.93;69.56
77288;BME280;66345;42.694;23.346;2024-01-15T07:56:13;94803.94;;;-0.86;69.06
77288;BME280;66345;42.694;23.346;2024-01-15T07:58:39;94807.78;;;-0.70;69.25
77288;BME280;66345;42.694;23.346;2024-01-15T08:01:04;94788.47;;;-0.87;68.60
77288;BME280;66345;42.694;23.346;2024-01-15T08:03:30;94786.38;;;-1.13;70.13
77288;BME280;66345;42.694;23.346;2024-01-15T08:05:56;94750.19;;;-1.35;70.47
77288;BME280;66345;42.694;23.346;2024-01-15T08:08:23;94778.19;;;-0.89;69.44
77288;BME280;66345;42.694;23.346;2024-01-15T08:10:49;94800.66;;;-0.30;68.09
77288;BME280;66345;42.694;23.346;2024-01-15T08:13:15;94781.69;;;-0.22;67.61
77288;BME280;66345;42.694;23.346;2024-01-15T08:15:41;94799.44;;;0.12;65.92
77288;BME280;66345;42.694;23.346;2024-01-15T08:18:07;94805.06;;;0.17;66.26
77288;BME280;66345;42.694;23.346;2024-01-15T08:20:32;94783.31;;;0.26;65.29
77288;BME280;66345;42.694;23.346;2024-01-15T08:22:58;94775.44;;;0.08;65.18
77288;BME280;66345;42.694;23.346;2024-01-15T08:25:24;94803.16;;;0.09;65.28
77288;BME280;66345;42.694;23.346;2024-01-15T08:27:52;94808.56;;;-0.12;66.68
77288;BME280;66345;42.694;23.346;2024-01-15T08:30:21;94816.84;;;0.58;64.02
77288;BME280;66345;42.694;23.346;2024-01-15T08:32:52;94798.16;;;0.80;63.48
77288;BME280;66345;42.694;23.346;2024-01-15T08:35:18;94766.19;;;1.50;60.58
77288;BME280;66345;42.694;23.346;2024-01-15T08:37:51;94770.78;;;3.18;56.09
77288;BME280;66345;42.694;23.346;2024-01-15T08:40:26;94752.59;;;3.98;53.14
77288;BME280;66345;42.694;23.346;2024-01-15T08:42:54;94761.28;;;3.99;53.56
77288;BME280;66345;42.694;23.346;2024-01-15T08:45:20;94735.28;;;4.76;51.65
77288;BME280;66345;42.694;23.346;2024-01-15T08:47:49;94749.88;;;4.47;51.93
77288;BME280;66345;42.694;23.346;2024-01-15T08:50:21;94737.22;;;4.42;50.87
77288;BME280;66345;42.694;23.346;2024-01-15T08:53:16;94740.00;;;3.85;52.87
77288;BME280;66345;42.694;23.346;2024-01-15T08:55:33;94742.31;;;3.48;53.93
77288;BME280;66345;42.694;23.346;2024-01-15T08:58:05;94757.72;;;3.59;53.58
77288;BME280;66345;42.694;23.346;2024-01-15T09:01:18;94753.91;;;3.29;54.25
77288;BME280;66345;42.694;23.346;2024-01-15T09:03:44;94724.59;;;2.16;57.00
77288;BME280;66345;42.694;23.346;2024-01-15T09:06:15;94732.75;;;2.47;56.69
77288;BME280;66345;42.694;23.346;2024-01-15T09:08:47;94752.63;;;1.72;59.94
77288;BME280;66345;42.694;23.346;2024-01-15T09:11:25;94720.41;;;1.28;60.48
77288;BME280;66345;42.694;23.346;2024-01-15T09:14:20;94711.81;;;2.05;58.94
77288;BME280;66345;42.694;23.346;2024-01-15T09:17:28;94663.22;;;2.45;56.56
77288;BME280;66345;42.694;23.346;2024-01-15T09:20:21;94657.78;;;2.38;57.12
77288;BME280;66345;42.694;23.346;2024-01-15T09:23:14;94680.16;;;2.91;55.50
77288;BME280;66345;42.694;23.346;2024-01-15T09:29:28;94678.53;;;2.90;57.39
77288;BME280;66345;42.694;23.346;2024-01-15T09:31:54;94671.84;;;3.20;54.59
77288;BME280;66345;42.694;23.346;2024-01-15T09:34:20;94688.81;;;2.84;56.65
77288;BME280;66345;42.694;23.346;2024-01-15T09:36:45;94676.06;;;2.89;56.53
77288;BME280;66345;42.694;23.346;2024-01-15T09:39:10;94667.00;;;2.50;57.93
77288;BME280;66345;42.694;23.346;2024-01-15T09:41:39;94668.34;;;2.12;59.97
77288;BME280;66345;42.694;23.346;2024-01-15T09:44:05;94657.28;;;1.92;61.14
77288;BME280;66345;42.694;23.346;2024-01-15T09:46:34;94667.22;;;1.55;61.95
77288;BME280;66345;42.694;23.346;2024-01-15T09:49:00;94661.88;;;1.38;63.63
77288;BME280;66345;42.694;23.346;2024-01-15T09:51:31;94659.44;;;1.37;63.28
77288;BME280;66345;42.694;23.346;2024-01-15T09:53:57;94635.44;;;1.67;62.23
77288;BME280;66345;42.694;23.346;2024-01-15T09:56:23;94640.09;;;1.56;62.17
77288;BME280;66345;42.694;23.346;2024-01-15T09:58:49;94620.28;;;1.45;62.72
77288;BME280;66345;42.694;23.346;2024-01-15T10:01:17;94617.34;;;1.48;62.84
77288;BME280;66345;42.694;23.346;2024-01-15T10:03:42;94615.59;;;1.31;62.70
77288;BME280;66345;42.694;23.346;2024-01-15T10:06:08;94633.25;;;1.11;64.08
77288;BME280;66345;42.694;23.346;2024-01-15T10:08:36;94645.97;;;1.06;65.49
77288;BME280;66345;42.694;23.346;2024-01-15T10:11:01;94635.63;;;1.22;64.49
77288;BME280;66345;42.694;23.346;2024-01-15T10:13:30;94603.84;;;1.61;62.90
77288;BME280;66345;42.694;23.346;2024-01-15T10:15:55;94609.09;;;1.35;63.63
77288;BME280;66345;42.694;23.346;2024-01-15T10:18:21;94603.09;;;1.43;64.12
77288;BME280;66345;42.694;23.346;2024-01-15T10:20:47;94601.44;;;1.67;63.57
77288;BME280;66345;42.694;23.346;2024-01-15T10:23:14;94589.50;;;1.73;61.21
77288;BME280;66345;42.694;23.346;2024-01-15T10:25:42;94585.00;;;1.83;62.46
77288;BME280;66345;42.694;23.346;2024-01-15T10:28:07;94584.59;;;2.04;60.67
77288;BME280;66345;42.694;23.346;2024-01-15T10:30:33;94582.00;;;1.70;62.23
77288;BME280;66345;42.694;23.346;2024-01-15T10:33:03;94568.00;;;1.87;62.57
77288;BME280;66345;42.694;23.346;2024-01-15T10:35:30;94569.19;;;2.01;61.43
77288;BME280;66345;42.694;23.346;2024-01-15T10:37:55;94575.50;;;1.82;62.45
77288;BME280;66345;42.694;23.346;2024-01-15T10:40:21;94565.81;;;2.25;60.70
77288;BME280;66345;42.694;23.346;2024-01-15T10:42:46;94548.28;;;2.17;61.06
77288;BME280;66345;42.694;23.346;2024-01-15T10:45:13;94564.06;;;1.83;63.18
77288;BME280;66345;42.694;23.346;2024-01-15T10:47:40;94560.63;;;1.83;62.79
77288;BME280;66345;42.694;23.346;2024-01-15T10:50:07;94558.22;;;1.89;61.62
77288;BME280;66345;42.694;23.346;2024-01-15T10:52:36;94558.72;;;2.01;62.22
77288;BME280;66345;42.694;23.346;2024-01-15T10:55:03;94535.19;;;2.17;61.04
77288;BME280;66345;42.694;23.346;2024-01-15T10:57:29;94539.66;;;2.82;59.12
77288;BME280;66345;42.694;23.346;2024-01-15T10:59:55;94535.00;;;3.25;56.25
77288;BME280;66345;42.694;23.346;2024-01-15T11:02:21;94543.75;;;2.85;56.99
77288;BME280;66345;42.694;23.346;2024-01-15T11:04:46;94528.81;;;3.26;57.08
77288;BME280;66345;42.694;23.346;2024-01-15T11:07:13;94520.88;;;3.42;56.50
77288;BME280;66345;42.694;23.346;2024-01-15T11:09:41;94516.53;;;3.02;56.74
77288;BME280;66345;42.694;23.346;2024-01-15T11:12:11;94534.91;;;2.94;55.85
77288;BME280;66345;42.694;23.346;2024-01-15T11:14:41;94517.63;;;3.32;55.60
77288;BME280;66345;42.694;23.346;2024-01-15T11:17:10;94509.75;;;3.40;55.96
77288;BME280;66345;42.694;23.346;2024-01-15T11:19:37;94492.38;;;3.39;54.65
77288;BME280;66345;42.694;23.346;2024-01-15T11:24:54;94494.47;;;3.83;55.15
77288;BME280;66345;42.694;23.346;2024-01-15T11:27:59;94490.03;;;4.14;55.08
77288;BME280;66345;42.694;23.346;2024-01-15T11:30:25;94484.56;;;4.24;53.41
77288;BME280;66345;42.694;23.346;2024-01-15T11:32:52;94486.81;;;4.04;53.78
77288;BME280;66345;42.694;23.346;2024-01-15T11:35:18;94479.81;;;3.97;53.29
77288;BME280;66345;42.694;23.346;2024-01-15T11:40:36;94486.72;;;3.58;55.33
77288;BME280;66345;42.694;23.346;2024-01-15T11:43:03;94481.25;;;3.68;55.67
77288;BME280;66345;42.694;23.346;2024-01-15T11:45:30;94463.19;;;4.27;53.85
77288;BME280;66345;42.694;23.346;2024-01-15T11:48:13;94471.06;;;4.04;54.55
77288;BME280;66345;42.694;23.346;2024-01-15T11:50:43;94476.72;;;3.93;55.15
77288;BME280;66345;42.694;23.346;2024-01-15T11:53:36;94483.94;;;3.91;56.10
77288;BME280;66345;42.694;23.346;2024-01-15T11:56:03;94468.69;;;4.17;54.32
77288;BME280;66345;42.694;23.346;2024-01-15T11:58:31;94458.31;;;4.01;53.30
77288;BME280;66345;42.694;23.346;2024-01-15T12:00:57;94457.00;;;3.97;53.49
77288;BME280;66345;42.694;23.346;2024-01-15T12:03:24;94439.22;;;4.07;54.49
77288;BME280;66345;42.694;23.346;2024-01-15T12:05:50;94458.00;;;3.96;54.51
77288;BME280;66345;42.694;23.346;2024-01-15T12:08:26;94458.72;;;4.13;55.78
77288;BME280;66345;42.694;23.346;2024-01-15T12:10:52;94457.06;;;3.89;57.35
77288;BME280;66345;42.694;23.346;2024-01-15T12:13:18;94447.75;;;4.09;54.96
77288;BME280;66345;42.694;23.346;2024-01-15T12:15:45;94448.91;;;4.30;53.78
77288;BME280;66345;42.694;23.346;2024-01-15T12:18:18;94439.50;;;3.89;56.17
77288;BME280;66345;42.694;23.346;2024-01-15T12:20:45;94431.06;;;4.25;54.44
77288;BME280;66345;42.694;23.346;2024-01-15T12:23:14;94434.75;;;4.16;54.72
77288;BME280;66345;42.694;23.346;2024-01-15T12:25:40;94422.63;;;4.30;54.05
77288;BME280;66345;42.694;23.346;2024-01-15T12:28:06;94436.44;;;4.32;53.70
77288;BME280;66345;42.694;23.346;2024-01-15T12:30:36;94428.94;;;4.21;55.37
77288;BME280;66345;42.694;23.346;2024-01-15T12:33:04;94413.78;;;4.08;55.91
77288;BME280;66345;42.694;23.346;2024-01-15T12:35:30;94424.75;;;4.11;55.78
77288;BME280;66345;42.694;23.346;2024-01-15T12:37:56;94417.13;;;4.02;56.95
77288;BME280;66345;42.694;23.346;2024-01-15T12:40:22;94410.31;;;4.30;56.00
77288;BME280;66345;42.694;23.346;2024-01-15T12:42:48;94416.47;;;4.23;56.08
77288;BME280;66345;42.694;23.346;2024-01-15T12:45:14;94408.63;;;4.37;55.69
77288;BME280;66345;42.694;23.346;2024-01-15T12:47:45;94408.03;;;4.50;55.16
77288;BME280;66345;42.694;23.346;2024-01-15T12:50:24;94408.53;;;4.08;55.45
77288;BME280;66345;42.694;23.346;2024-01-15T12:52:54;94402.22;;;4.40;55.56
77288;BME280;66345;42.694;23.346;2024-01-15T12:55:20;94406.44;;;4.26;56.48
77288;BME280;66345;42.694;23.346;2024-01-15T12:57:49;94398.00;;;4.16;56.65
77288;BME280;66345;42.694;23.346;2024-01-15T13:00:22;94401.66;;;4.07;57.46
77288;BME280;66345;42.694;23.346;2024-01-15T13:02:48;94390.88;;;4.25;56.97